createdAt,value
2023-08-17T00:02:35.459Z,55.61
2023-08-17T00:07:39.666Z,55.20
2023-08-17T00:12:43.712Z,55.46
2023-08-17T00:17:46.836Z,55.38
2023-08-17T00:22:50.872Z,54.99
2023-08-17T00:27:54.453Z,54.88
2023-08-17T00:32:58.345Z,54.56
2023-08-17T00:38:02.134Z,54.61
2023-08-17T00:43:09.183Z,54.70
2023-08-17T00:48:12.978Z,54.69
2023-08-17T00:53:17.596Z,54.66
2023-08-17T00:58:23.280Z,54.67
2023-08-17T01:03:31.690Z,54.95
2023-08-17T01:08:35.982Z,55.32
2023-08-17T01:14:07.487Z,55.53
2023-08-17T01:19:14.868Z,55.52
2023-08-17T01:24:18.621Z,55.64
2023-08-17T01:29:22.557Z,55.58
2023-08-17T01:34:28.704Z,55.80
2023-08-17T01:39:38.844Z,55.84
2023-08-17T01:44:42.798Z,55.88
2023-08-17T01:49:46.734Z,56.04
2023-08-17T01:54:51.639Z,56.07
2023-08-17T01:59:55.714Z,56.12
2023-08-17T02:04:59.813Z,56.01
2023-08-17T02:10:03.717Z,56.19
2023-08-17T02:15:08.404Z,56.33
2023-08-17T02:20:13.066Z,56.47
2023-08-17T02:25:16.321Z,56.89
2023-08-17T02:30:21.736Z,57.18
2023-08-17T02:35:25.341Z,57.35
2023-08-17T02:40:29.637Z,57.44
2023-08-17T02:45:33.253Z,57.62
2023-08-17T02:50:37.027Z,57.45
2023-08-17T02:55:40.780Z,57.50
2023-08-17T03:00:45.282Z,58.08
2023-08-17T03:05:48.457Z,57.87
2023-08-17T03:10:52.529Z,58.14
2023-08-17T03:15:56.624Z,58.34
2023-08-17T03:21:00.803Z,58.19
2023-08-17T03:26:04.733Z,58.28
2023-08-17T03:31:10.185Z,58.37
2023-08-17T03:36:15.422Z,58.67
2023-08-17T03:41:19.997Z,58.71
2023-08-17T03:46:23.713Z,58.97
2023-08-17T03:51:27.723Z,59.05
2023-08-17T03:56:33.014Z,59.03
2023-08-17T04:01:39.478Z,60.96
2023-08-17T04:06:43.099Z,59.36
2023-08-17T04:11:46.565Z,59.44
2023-08-17T04:16:49.753Z,59.07
2023-08-17T04:21:54.521Z,59.25
2023-08-17T04:26:57.736Z,59.48
2023-08-17T04:32:01.509Z,59.72
2023-08-17T04:37:05.105Z,61.00
2023-08-17T04:42:09.490Z,60.46
2023-08-17T04:47:12.995Z,60.17
2023-08-17T04:52:16.783Z,60.04
2023-08-17T04:57:20.381Z,59.76
2023-08-17T05:02:24.839Z,59.62
2023-08-17T05:07:29.587Z,58.82
2023-08-17T05:12:33.361Z,58.31
2023-08-17T05:17:38.018Z,57.24
2023-08-17T05:22:41.658Z,56.54
2023-08-17T05:27:45.448Z,55.98
2023-08-17T05:32:49.243Z,55.08
2023-08-17T05:37:53.350Z,54.14
2023-08-17T05:42:57.225Z,52.86
2023-08-17T05:48:01.179Z,51.76
2023-08-17T05:53:04.954Z,49.01
2023-08-17T05:58:09.683Z,47.80
2023-08-17T06:03:13.764Z,45.64
2023-08-17T06:08:18.120Z,44.39
2023-08-17T06:13:22.374Z,42.51
2023-08-17T06:18:25.959Z,41.34
2023-08-17T06:23:30.245Z,41.77
2023-08-17T06:28:33.632Z,38.36
2023-08-17T06:33:37.731Z,34.09
2023-08-17T06:38:41.534Z,31.83
2023-08-17T06:43:45.239Z,30.90
2023-08-17T06:48:49.833Z,30.69
2023-08-17T06:53:53.914Z,29.54
2023-08-17T06:58:57.413Z,28.41
2023-08-17T07:04:01.018Z,27.77
2023-08-17T07:09:06.531Z,27.73
2023-08-17T07:14:10.280Z,28.50
2023-08-17T07:19:17.046Z,28.06
2023-08-17T07:24:21.596Z,28.31
2023-08-17T07:29:24.731Z,28.73
2023-08-17T07:34:29.127Z,30.10
2023-08-17T07:39:33.054Z,29.13
2023-08-17T07:44:36.787Z,29.76
2023-08-17T07:49:41.431Z,29.66
2023-08-17T07:54:45.012Z,29.66
2023-08-17T07:59:49.235Z,31.07
2023-08-17T08:04:53.049Z,30.09
2023-08-17T08:09:56.841Z,30.24
2023-08-17T08:15:00.682Z,29.94
2023-08-17T08:20:05.806Z,31.57
2023-08-17T08:25:09.746Z,30.93
2023-08-17T08:30:13.296Z,32.97
2023-08-17T08:35:16.922Z,30.55
2023-08-17T08:40:22.181Z,31.84
2023-08-17T08:45:26.954Z,30.75
2023-08-17T08:50:34.036Z,30.15
2023-08-17T08:55:49.067Z,31.90
2023-08-17T09:00:52.702Z,31.60
2023-08-17T09:05:59.756Z,31.30
2023-08-17T09:11:04.550Z,32.44
2023-08-17T09:16:08.208Z,32.80
2023-08-17T09:21:23.716Z,34.34
2023-08-17T09:26:31.808Z,36.14
2023-08-17T09:31:35.984Z,35.59
2023-08-17T09:36:38.991Z,33.57
2023-08-17T09:41:43.923Z,36.39
2023-08-17T09:46:47.993Z,34.39
2023-08-17T09:51:53.931Z,34.20
2023-08-17T09:56:57.961Z,34.11
2023-08-17T10:02:01.793Z,34.37
2023-08-17T10:07:07.335Z,34.19
2023-08-17T10:12:17.886Z,34.97
2023-08-17T10:17:28.774Z,35.50
2023-08-17T10:23:08.390Z,33.53
2023-08-17T10:28:13.607Z,34.45
2023-08-17T10:33:17.906Z,35.73
2023-08-17T10:38:22.935Z,35.07
2023-08-17T10:43:35.137Z,34.19
2023-08-17T10:48:39.046Z,35.61
2023-08-17T10:53:46.294Z,34.69
2023-08-17T10:58:52.943Z,33.18
2023-08-17T11:04:19.056Z,33.74
2023-08-17T11:09:24.342Z,35.19
2023-08-17T11:14:35.120Z,34.27
2023-08-17T11:19:42.187Z,34.02
2023-08-17T11:24:46.043Z,30.89
2023-08-17T11:29:52.856Z,32.44
2023-08-17T11:34:59.412Z,32.57
2023-08-17T11:40:03.981Z,33.43
2023-08-17T11:45:11.546Z,31.42
2023-08-17T11:50:21.079Z,31.16
2023-08-17T11:55:25.614Z,33.35
2023-08-17T12:00:29.973Z,32.47
2023-08-17T12:05:34.972Z,30.54
2023-08-17T12:10:40.055Z,30.22
2023-08-17T12:15:44.756Z,30.57
2023-08-17T12:20:54.679Z,29.56
2023-08-17T12:25:58.782Z,30.41
2023-08-17T12:31:04.735Z,30.01
2023-08-17T12:36:08.712Z,30.27
2023-08-17T12:41:13.146Z,31.28
2023-08-17T12:46:17.547Z,31.41
2023-08-17T12:51:21.208Z,31.10
2023-08-17T12:56:24.798Z,31.42
2023-08-17T13:01:28.786Z,30.49
2023-08-17T13:06:43.805Z,29.88
2023-08-17T13:11:53.416Z,29.93
2023-08-17T13:16:57.739Z,29.77
2023-08-17T13:22:04.161Z,29.43
2023-08-17T13:27:08.589Z,29.72
2023-08-17T13:32:12.270Z,30.00
2023-08-17T13:37:16.007Z,32.20
2023-08-17T13:42:19.540Z,32.06
2023-08-17T13:47:24.943Z,35.18
2023-08-17T13:52:28.876Z,35.91
2023-08-17T13:57:32.963Z,35.17
2023-08-17T14:02:36.858Z,34.37
2023-08-17T14:07:41.236Z,36.00
2023-08-17T14:12:44.784Z,37.52
2023-08-17T14:17:48.979Z,41.23
2023-08-17T14:22:53.444Z,43.21
2023-08-17T14:27:57.355Z,47.10
2023-08-17T14:33:01.839Z,45.48
2023-08-17T14:38:06.047Z,47.26
2023-08-17T14:43:11.027Z,46.58
2023-08-17T14:48:14.882Z,47.76
2023-08-17T14:53:18.872Z,48.03
2023-08-17T14:58:22.747Z,47.98
2023-08-17T15:03:26.925Z,49.70
2023-08-17T15:08:30.603Z,51.78
2023-08-17T15:13:34.378Z,51.68
2023-08-17T15:18:38.001Z,51.67
2023-08-17T15:23:41.629Z,52.55
2023-08-17T15:28:46.716Z,52.94
2023-08-17T15:33:50.515Z,52.12
2023-08-17T15:38:54.139Z,51.29
2023-08-17T15:43:58.630Z,51.07
2023-08-17T15:49:02.371Z,51.61
2023-08-17T15:54:06.458Z,51.51
2023-08-17T15:59:10.414Z,51.22
2023-08-17T16:04:13.875Z,51.34
2023-08-17T16:09:18.270Z,51.85
2023-08-17T16:14:22.017Z,51.59
2023-08-17T16:19:26.560Z,52.15
2023-08-17T16:24:30.781Z,52.88
2023-08-17T16:29:34.512Z,53.55
2023-08-17T16:34:38.566Z,54.70
2023-08-17T16:39:42.308Z,55.00
2023-08-17T16:44:46.383Z,55.94
2023-08-17T16:49:49.507Z,56.97
2023-08-17T16:54:53.153Z,57.75
2023-08-17T16:59:57.190Z,58.68
2023-08-17T17:05:01.382Z,60.55
2023-08-17T17:10:05.278Z,60.19
2023-08-17T17:15:10.138Z,60.66
2023-08-17T17:20:14.340Z,60.09
2023-08-17T17:25:18.855Z,62.15
2023-08-17T17:30:22.501Z,62.00
2023-08-17T17:35:26.365Z,63.54
2023-08-17T17:40:30.559Z,64.33
2023-08-17T17:45:34.061Z,64.56
2023-08-17T17:50:38.046Z,65.13
2023-08-17T17:55:42.369Z,65.65
2023-08-17T18:00:48.715Z,66.44
2023-08-17T18:05:52.805Z,66.68
2023-08-17T18:10:57.231Z,68.00
2023-08-17T18:16:01.441Z,68.77
2023-08-17T18:21:08.303Z,69.77
2023-08-17T18:26:12.175Z,69.76
2023-08-17T18:31:16.260Z,70.62
2023-08-17T18:36:20.505Z,70.58
2023-08-17T18:41:24.267Z,71.14
2023-08-17T18:46:28.613Z,70.28
2023-08-17T18:51:33.061Z,69.39
2023-08-17T18:56:37.097Z,68.61
2023-08-17T19:01:41.274Z,67.41
2023-08-17T19:06:45.592Z,66.86
2023-08-17T19:11:49.228Z,66.41
2023-08-17T19:16:53.266Z,65.89
2023-08-17T19:21:56.832Z,66.06
2023-08-17T19:27:01.024Z,65.60
2023-08-17T19:32:05.620Z,64.83
2023-08-17T19:37:09.324Z,64.83
2023-08-17T19:42:13.553Z,65.13
2023-08-17T19:47:18.756Z,64.52
2023-08-17T19:52:24.329Z,63.46
2023-08-17T19:57:28.740Z,63.73
2023-08-17T20:02:33.233Z,62.92
2023-08-17T20:07:38.155Z,62.68
2023-08-17T20:12:41.847Z,62.24
2023-08-17T20:17:45.971Z,62.40
2023-08-17T20:22:50.146Z,61.62
2023-08-17T20:27:54.041Z,61.05
2023-08-17T20:32:57.996Z,61.10
2023-08-17T20:38:02.418Z,61.10
2023-08-17T20:43:06.806Z,61.60
2023-08-17T20:48:11.060Z,61.42
2023-08-17T20:53:16.412Z,61.79
2023-08-17T20:58:20.055Z,61.39
2023-08-17T21:03:24.151Z,61.76
2023-08-17T21:08:28.831Z,61.35
2023-08-17T21:13:33.679Z,61.42
2023-08-17T21:18:37.732Z,61.83
2023-08-17T21:23:41.966Z,61.96
2023-08-17T21:28:45.590Z,61.35
2023-08-17T21:33:49.149Z,61.69
2023-08-17T21:38:52.593Z,61.86
2023-08-17T21:43:57.089Z,61.72
2023-08-17T21:49:01.181Z,62.07
2023-08-17T21:54:05.033Z,61.82
2023-08-17T21:59:09.104Z,61.86
2023-08-17T22:04:12.503Z,61.96
2023-08-17T22:09:16.116Z,62.45
2023-08-17T22:14:20.044Z,62.82
2023-08-17T22:19:23.872Z,63.10
2023-08-17T22:24:34.850Z,63.30
2023-08-17T22:29:41.137Z,63.26
2023-08-17T22:34:45.059Z,63.49
2023-08-17T22:39:49.362Z,64.18
2023-08-17T22:44:53.316Z,64.41
2023-08-17T22:49:57.403Z,64.67
2023-08-17T22:55:01.493Z,64.92
2023-08-17T23:00:07.412Z,65.42
2023-08-17T23:05:11.694Z,65.77
2023-08-17T23:10:15.310Z,65.84
2023-08-17T23:15:23.005Z,66.02
2023-08-17T23:20:27.579Z,66.37
2023-08-17T23:25:32.810Z,66.58
2023-08-17T23:30:39.670Z,66.48
2023-08-17T23:35:43.548Z,66.83
2023-08-17T23:40:47.551Z,67.19
2023-08-17T23:45:51.658Z,66.67
2023-08-17T23:50:55.548Z,66.36
2023-08-17T23:55:59.361Z,66.80
